Terminal Aerodrome Forecast
Issued by NWS

Home | Current Version | Previous Version | Text Only | Print | Product List | Glossary On
Versions: 1 2 3 4 5 6 7 8 9 10 11 12 13 14 15 16 17 18 19 20 21 22 23 24 25 26 27 28 29 30 31 32
302
FTUS43 KDVN 180520
TAFCID
TAF
KCID 180520Z 1806/1906 01006KT 1SM -RA BR OVC003
      TEMPO 1806/1808 3/4SM -RADZ BR OVC002
     FM180800 36008KT 2SM -RA BR OVC005
     FM181000 35015KT 3SM -RA BR OVC007
     FM181300 33017G27KT 3/4SM -RASN BR OVC012
     FM181700 31018G28KT P6SM BKN025
     FM182000 30020G30KT P6SM SKC=

USA.gov is the U.S. government's official web portal to all federal, state and local government web resources and services.